createdAt,value
2022-12-31T00:01:11.007Z,0.50
2022-12-31T00:03:41.886Z,0.67
2022-12-31T00:06:18.329Z,0.50
2022-12-31T00:08:47.616Z,0.50
2022-12-31T00:11:16.747Z,0.40
2022-12-31T00:13:47.156Z,0.60
2022-12-31T00:16:18.036Z,0.40
2022-12-31T00:18:51.951Z,0.50
2022-12-31T00:21:21.700Z,0.50
2022-12-31T00:23:51.469Z,0.60
2022-12-31T00:26:22.178Z,0.50
2022-12-31T00:28:51.370Z,0.57
2022-12-31T00:31:22.131Z,0.47
2022-12-31T00:33:52.996Z,0.50
2022-12-31T00:36:23.473Z,0.60
2022-12-31T00:38:55.225Z,0.50
2022-12-31T00:41:25.473Z,0.67
2022-12-31T00:43:54.589Z,0.63
2022-12-31T00:46:23.865Z,0.80
2022-12-31T00:48:54.653Z,0.53
2022-12-31T00:51:27.396Z,0.60
2022-12-31T00:53:57.009Z,0.50
2022-12-31T00:56:28.039Z,0.50
2022-12-31T00:58:57.255Z,0.50
2022-12-31T01:01:29.405Z,0.50
2022-12-31T01:04:03.023Z,0.50
2022-12-31T01:06:31.674Z,0.60
2022-12-31T01:09:00.289Z,0.60
2022-12-31T01:11:32.818Z,0.53
2022-12-31T01:14:05.818Z,0.83
2022-12-31T01:16:36.356Z,0.60
2022-12-31T01:19:12.377Z,0.50
2022-12-31T01:21:42.519Z,0.90
2022-12-31T01:24:11.635Z,0.70
2022-12-31T01:26:41.236Z,0.50
2022-12-31T01:29:10.995Z,0.63
2022-12-31T01:31:39.996Z,1.07
2022-12-31T01:34:10.006Z,0.80
2022-12-31T01:36:39.399Z,0.70
2022-12-31T01:39:09.633Z,0.60
2022-12-31T01:41:40.447Z,0.50
2022-12-31T01:44:42.297Z,0.87
2022-12-31T01:47:17.200Z,0.60
2022-12-31T01:49:51.104Z,0.63
2022-12-31T01:52:23.863Z,0.90
2022-12-31T01:54:56.276Z,1.10
2022-12-31T01:57:27.692Z,0.97
2022-12-31T01:59:57.696Z,1.10
2022-12-31T02:02:26.628Z,0.80
2022-12-31T02:04:59.795Z,0.60
2022-12-31T02:07:28.269Z,0.90
2022-12-31T02:09:56.774Z,0.90
2022-12-31T02:12:26.769Z,0.87
2022-12-31T02:14:57.482Z,0.70
2022-12-31T02:17:33.886Z,0.73
2022-12-31T02:20:46.810Z,0.70
2022-12-31T02:24:00.050Z,0.70
2022-12-31T02:26:53.348Z,0.67
2022-12-31T02:29:54.043Z,0.83
2022-12-31T02:32:31.226Z,1.00
2022-12-31T02:35:04.339Z,0.80
2022-12-31T02:37:37.043Z,0.80
2022-12-31T02:40:10.002Z,1.07
2022-12-31T02:42:38.388Z,1.03
2022-12-31T02:45:08.168Z,1.00
2022-12-31T02:47:57.641Z,0.67
2022-12-31T02:50:37.391Z,0.80
2022-12-31T02:53:22.699Z,0.57
2022-12-31T02:55:58.843Z,1.17
2022-12-31T02:58:48.041Z,0.83
2022-12-31T03:01:39.266Z,0.90
2022-12-31T03:04:24.258Z,1.07
2022-12-31T03:06:54.736Z,1.00
2022-12-31T03:09:23.372Z,1.17
2022-12-31T03:12:09.304Z,0.93
2022-12-31T03:14:38.668Z,1.03
2022-12-31T03:17:07.496Z,0.93
2022-12-31T03:19:54.773Z,1.20
2022-12-31T03:22:29.345Z,1.07
2022-12-31T03:25:19.495Z,1.10
2022-12-31T03:27:49.304Z,1.13
2022-12-31T03:30:19.438Z,1.20
2022-12-31T03:32:49.845Z,1.13
2022-12-31T03:35:21.830Z,1.00
2022-12-31T03:37:51.657Z,1.27
2022-12-31T03:40:22.290Z,1.20
2022-12-31T03:42:50.829Z,1.60
2022-12-31T03:45:19.923Z,0.77
2022-12-31T03:47:49.057Z,1.07
2022-12-31T03:50:20.035Z,1.37
2022-12-31T03:52:48.866Z,1.23
2022-12-31T03:55:17.337Z,1.17
2022-12-31T03:57:45.912Z,1.23
2022-12-31T04:00:18.740Z,1.30
2022-12-31T04:02:47.913Z,1.37
2022-12-31T04:05:17.916Z,1.63
2022-12-31T04:07:48.060Z,1.40
2022-12-31T04:10:18.656Z,1.00
2022-12-31T04:12:47.264Z,1.43
2022-12-31T04:15:19.343Z,1.30
2022-12-31T04:17:48.242Z,1.80
2022-12-31T04:20:16.906Z,1.20
2022-12-31T04:22:45.157Z,1.20
2022-12-31T04:25:15.137Z,1.33
2022-12-31T04:27:44.535Z,1.43
2022-12-31T04:30:14.773Z,1.40
2022-12-31T04:32:43.558Z,1.30
2022-12-31T04:35:14.037Z,1.63
2022-12-31T04:37:43.146Z,1.27
2022-12-31T04:40:12.381Z,1.20
2022-12-31T04:42:44.423Z,1.07
2022-12-31T04:45:13.080Z,1.27
2022-12-31T04:47:41.450Z,1.00
2022-12-31T04:50:11.514Z,1.13
2022-12-31T04:52:43.104Z,0.90
2022-12-31T04:55:12.918Z,1.00
2022-12-31T04:57:43.264Z,1.10
2022-12-31T05:00:12.663Z,0.90
2022-12-31T05:02:41.712Z,1.00
2022-12-31T05:05:11.264Z,1.17
2022-12-31T05:07:40.304Z,1.23
2022-12-31T05:10:10.188Z,0.87
2022-12-31T05:12:39.981Z,1.10
2022-12-31T05:15:11.982Z,1.43
2022-12-31T05:17:41.202Z,0.80
2022-12-31T05:20:10.524Z,0.80
2022-12-31T05:22:38.716Z,1.87
2022-12-31T05:25:08.433Z,0.80
2022-12-31T05:27:38.267Z,0.73
2022-12-31T05:30:08.106Z,1.03
2022-12-31T05:32:38.762Z,0.90
2022-12-31T05:35:08.399Z,1.10
2022-12-31T05:37:36.747Z,0.87
2022-12-31T05:40:06.727Z,1.13
2022-12-31T05:42:35.334Z,0.90
2022-12-31T05:45:04.140Z,0.80
2022-12-31T05:47:32.614Z,1.00
2022-12-31T05:50:02.683Z,0.90
2022-12-31T05:52:31.369Z,0.70
2022-12-31T05:54:59.984Z,0.90
2022-12-31T05:57:31.047Z,1.00
2022-12-31T05:59:59.405Z,0.70
2022-12-31T06:02:28.376Z,0.87
2022-12-31T06:04:58.802Z,0.70
2022-12-31T06:07:30.045Z,1.10
2022-12-31T06:09:58.468Z,1.00
2022-12-31T06:12:26.911Z,1.00
2022-12-31T06:14:55.502Z,1.20
2022-12-31T06:17:24.685Z,1.00
2022-12-31T06:19:53.356Z,0.80
2022-12-31T06:22:22.221Z,0.80
2022-12-31T06:24:54.071Z,1.20
2022-12-31T06:27:23.888Z,1.30
2022-12-31T06:29:53.092Z,0.83
2022-12-31T06:32:21.576Z,0.90
2022-12-31T06:34:50.501Z,1.00
2022-12-31T06:37:18.844Z,1.00
2022-12-31T06:39:47.160Z,1.00
2022-12-31T06:42:17.364Z,1.10
2022-12-31T06:44:45.821Z,1.00
2022-12-31T06:47:14.343Z,1.00
2022-12-31T06:49:42.894Z,1.10
2022-12-31T06:52:12.957Z,1.10
2022-12-31T06:54:42.003Z,0.90
2022-12-31T06:57:11.743Z,1.57
2022-12-31T06:59:42.759Z,0.80
2022-12-31T07:02:46.898Z,0.90
2022-12-31T07:05:28.980Z,1.00
2022-12-31T07:08:10.360Z,0.83
2022-12-31T07:10:48.261Z,1.03
2022-12-31T07:13:40.609Z,0.90
2022-12-31T07:16:26.723Z,0.83
2022-12-31T07:19:05.772Z,0.90
2022-12-31T07:21:37.390Z,1.23
2022-12-31T07:24:08.740Z,0.80
2022-12-31T07:26:57.358Z,1.00
2022-12-31T07:29:36.296Z,1.30
2022-12-31T07:32:15.612Z,0.80
2022-12-31T07:34:52.669Z,1.03
2022-12-31T07:37:31.947Z,0.90
2022-12-31T07:40:08.224Z,1.13
2022-12-31T07:42:45.815Z,1.00
2022-12-31T07:45:20.825Z,0.90
2022-12-31T07:47:51.735Z,1.20
2022-12-31T07:50:22.077Z,0.90
2022-12-31T07:52:50.984Z,1.10
2022-12-31T07:55:20.176Z,0.70
2022-12-31T07:57:58.148Z,1.13
2022-12-31T08:00:27.293Z,1.20
2022-12-31T08:03:12.056Z,1.30
2022-12-31T08:05:49.736Z,1.30
2022-12-31T08:08:29.191Z,1.10
2022-12-31T08:11:08.545Z,1.20
2022-12-31T08:13:38.365Z,0.80
2022-12-31T08:16:12.811Z,1.13
2022-12-31T08:18:44.065Z,1.10
2022-12-31T08:21:34.513Z,1.20
2022-12-31T08:24:13.842Z,1.30
2022-12-31T08:26:53.335Z,1.00
2022-12-31T08:29:36.609Z,1.00
2022-12-31T08:32:11.966Z,1.10
2022-12-31T08:34:52.025Z,0.97
2022-12-31T08:37:29.084Z,1.20
2022-12-31T08:40:14.192Z,1.00
2022-12-31T08:42:52.639Z,0.80
2022-12-31T08:45:27.880Z,1.07
2022-12-31T08:48:07.228Z,1.00
2022-12-31T08:50:43.695Z,0.90
2022-12-31T08:53:13.634Z,1.60
2022-12-31T08:55:44.424Z,1.17
2022-12-31T08:58:26.971Z,1.10
2022-12-31T09:00:59.487Z,1.20
2022-12-31T09:03:51.523Z,0.90
2022-12-31T09:06:29.163Z,1.30
2022-12-31T09:09:04.507Z,1.10
2022-12-31T09:11:44.973Z,1.30
2022-12-31T09:14:37.930Z,0.90
2022-12-31T09:17:15.832Z,1.10
2022-12-31T09:19:44.390Z,1.00
2022-12-31T09:22:15.228Z,1.03
2022-12-31T09:24:44.355Z,1.10
2022-12-31T09:27:27.252Z,1.10
2022-12-31T09:30:03.969Z,0.93
2022-12-31T09:32:42.697Z,1.00
2022-12-31T09:35:20.127Z,1.10
2022-12-31T09:37:52.166Z,1.23
2022-12-31T09:40:52.109Z,1.13
2022-12-31T09:43:59.024Z,1.10
2022-12-31T09:46:58.721Z,1.37
2022-12-31T09:50:16.129Z,1.40
2022-12-31T09:53:06.366Z,1.20
2022-12-31T09:55:41.826Z,1.40
2022-12-31T09:58:24.649Z,1.20
2022-12-31T10:00:59.254Z,1.00
2022-12-31T10:03:43.924Z,0.87
2022-12-31T10:06:27.032Z,1.10
2022-12-31T10:12:19.908Z,1.07
2022-12-31T10:15:01.800Z,1.37
2022-12-31T10:17:46.298Z,1.20
2022-12-31T10:20:27.481Z,1.30
2022-12-31T10:23:21.363Z,1.27
2022-12-31T10:26:16.292Z,1.30
2022-12-31T10:28:54.997Z,1.40
2022-12-31T10:31:39.051Z,1.10
2022-12-31T10:34:16.142Z,1.20
2022-12-31T10:36:55.466Z,1.10
2022-12-31T10:40:04.348Z,1.77
2022-12-31T10:43:09.489Z,1.40
2022-12-31T10:46:17.657Z,1.33
2022-12-31T10:49:16.141Z,1.20
2022-12-31T10:52:17.291Z,0.93
2022-12-31T10:55:24.469Z,1.30
2022-12-31T10:58:31.434Z,1.10
2022-12-31T11:01:08.853Z,1.20
2022-12-31T11:04:05.285Z,1.17
2022-12-31T11:07:19.707Z,1.20
2022-12-31T11:10:22.843Z,1.20
2022-12-31T11:13:26.450Z,1.13
2022-12-31T11:16:17.105Z,1.50
2022-12-31T11:18:54.748Z,1.23
2022-12-31T11:21:41.325Z,1.00
2022-12-31T11:24:27.686Z,1.37
2022-12-31T11:27:14.651Z,1.60
2022-12-31T11:30:19.141Z,1.30
2022-12-31T11:33:04.912Z,0.97
2022-12-31T11:35:48.047Z,1.20
2022-12-31T11:38:22.832Z,1.13
2022-12-31T11:41:04.087Z,1.00
2022-12-31T11:43:39.008Z,0.90
2022-12-31T11:46:45.240Z,1.13
2022-12-31T11:49:25.844Z,1.00
2022-12-31T11:52:22.999Z,1.20
2022-12-31T11:55:01.556Z,1.57
2022-12-31T11:57:36.136Z,1.00
2022-12-31T12:00:15.303Z,0.97
2022-12-31T12:02:49.108Z,1.10
2022-12-31T12:05:21.315Z,0.97
2022-12-31T12:07:50.446Z,0.97
2022-12-31T12:10:28.014Z,1.10
2022-12-31T12:13:11.554Z,1.63
2022-12-31T12:15:43.735Z,1.33
2022-12-31T12:18:26.667Z,1.20
2022-12-31T12:21:04.238Z,1.17
2022-12-31T12:23:34.224Z,1.10
2022-12-31T12:26:02.817Z,1.00
2022-12-31T12:28:44.380Z,1.10
2022-12-31T12:31:22.045Z,0.90
2022-12-31T12:33:52.556Z,1.10
2022-12-31T12:36:25.322Z,1.00
2022-12-31T12:39:03.568Z,1.20
2022-12-31T12:41:32.950Z,1.30
2022-12-31T12:44:07.279Z,1.13
2022-12-31T12:46:44.732Z,1.03
2022-12-31T12:49:23.945Z,1.17
2022-12-31T12:52:37.180Z,1.27
2022-12-31T12:55:17.097Z,1.40
2022-12-31T12:57:52.298Z,1.20
2022-12-31T13:00:23.228Z,1.50
2022-12-31T13:03:23.838Z,1.50
2022-12-31T13:06:20.390Z,1.33
2022-12-31T13:09:04.874Z,1.43
2022-12-31T13:11:41.038Z,1.00
2022-12-31T13:14:32.898Z,1.53
2022-12-31T13:17:11.290Z,1.10
2022-12-31T13:19:44.680Z,1.30
2022-12-31T13:22:20.148Z,1.00
2022-12-31T13:25:02.897Z,1.70
2022-12-31T13:27:37.615Z,1.50
2022-12-31T13:30:14.656Z,1.10
2022-12-31T13:32:49.935Z,1.33
2022-12-31T13:35:34.869Z,2.90
2022-12-31T13:38:09.463Z,1.13
2022-12-31T13:40:55.702Z,1.30
2022-12-31T13:43:34.524Z,1.60
2022-12-31T13:46:12.406Z,1.30
2022-12-31T13:48:52.135Z,1.20
2022-12-31T13:51:29.239Z,1.33
2022-12-31T13:54:03.917Z,1.73
2022-12-31T13:56:39.929Z,1.57
2022-12-31T13:59:17.386Z,1.20
2022-12-31T14:01:55.189Z,1.53
2022-12-31T14:04:31.770Z,1.43
2022-12-31T14:07:07.679Z,1.20
2022-12-31T14:09:38.001Z,1.13
2022-12-31T14:12:24.256Z,1.13
2022-12-31T14:15:05.906Z,1.30
2022-12-31T14:17:39.131Z,1.30
2022-12-31T14:20:18.183Z,1.30
2022-12-31T14:22:57.711Z,1.33
2022-12-31T14:25:35.487Z,0.97
2022-12-31T14:28:08.792Z,1.30
2022-12-31T14:30:42.731Z,1.43
2022-12-31T14:33:32.522Z,1.50
2022-12-31T14:36:14.243Z,1.60
2022-12-31T14:38:56.546Z,1.40
2022-12-31T14:41:41.540Z,1.40
2022-12-31T14:44:33.106Z,1.17
2022-12-31T14:47:16.330Z,1.40
2022-12-31T14:49:54.658Z,1.27
2022-12-31T14:52:28.890Z,1.33
2022-12-31T14:55:24.747Z,1.07
2022-12-31T15:00:57.646Z,1.20
2022-12-31T15:03:38.930Z,1.40
2022-12-31T15:06:42.195Z,1.53
2022-12-31T15:09:25.133Z,1.43
2022-12-31T15:12:18.347Z,1.20
2022-12-31T15:15:16.928Z,1.07
2022-12-31T15:18:00.766Z,1.00
2022-12-31T15:20:55.292Z,1.20
2022-12-31T15:23:26.148Z,1.10
2022-12-31T15:26:05.675Z,1.30
2022-12-31T15:28:37.994Z,1.50
2022-12-31T15:31:18.935Z,1.40
2022-12-31T15:34:06.087Z,1.20
2022-12-31T15:36:36.204Z,1.33
2022-12-31T15:39:37.384Z,1.30
2022-12-31T15:42:37.701Z,1.10
2022-12-31T15:45:14.164Z,1.50
2022-12-31T15:47:52.962Z,1.67
2022-12-31T15:50:24.750Z,2.00
2022-12-31T15:52:57.715Z,2.03
2022-12-31T15:55:32.211Z,1.93
2022-12-31T15:58:05.806Z,3.13
2022-12-31T16:00:50.703Z,1.00
2022-12-31T16:03:23.983Z,1.10
2022-12-31T16:05:59.091Z,2.20
2022-12-31T16:08:32.813Z,1.93
2022-12-31T16:11:02.633Z,1.50
2022-12-31T16:13:35.169Z,1.30
2022-12-31T16:16:06.261Z,1.93
2022-12-31T16:18:39.588Z,1.60
2022-12-31T16:21:29.502Z,1.50
2022-12-31T16:24:01.816Z,1.17
2022-12-31T16:26:46.086Z,1.60
2022-12-31T16:29:16.288Z,1.40
2022-12-31T16:31:46.038Z,1.90
2022-12-31T16:34:16.752Z,1.30
2022-12-31T16:37:01.526Z,1.43
2022-12-31T16:39:35.091Z,1.30
2022-12-31T16:42:19.354Z,1.60
2022-12-31T16:44:50.424Z,1.20
2022-12-31T16:47:23.342Z,1.50
2022-12-31T16:50:15.760Z,1.40
2022-12-31T16:52:50.757Z,1.77
2022-12-31T16:55:23.659Z,1.40
2022-12-31T16:57:58.241Z,1.60
2022-12-31T17:00:28.614Z,1.80
2022-12-31T17:03:09.712Z,1.40
2022-12-31T17:05:57.712Z,1.27
2022-12-31T17:08:30.263Z,1.73
2022-12-31T17:10:58.778Z,1.30
2022-12-31T17:13:37.792Z,1.60
2022-12-31T17:16:07.998Z,1.20
2022-12-31T17:18:39.518Z,1.90
2022-12-31T17:21:14.831Z,2.00
2022-12-31T17:23:54.603Z,1.30
2022-12-31T17:26:26.157Z,2.57
2022-12-31T17:28:56.767Z,1.50
2022-12-31T17:31:35.475Z,1.80
2022-12-31T17:34:19.323Z,1.77
2022-12-31T17:36:58.109Z,4.30
2022-12-31T17:39:29.205Z,1.90
2022-12-31T17:41:59.291Z,1.20
2022-12-31T17:44:29.645Z,1.20
2022-12-31T17:46:59.422Z,1.43
2022-12-31T17:49:32.127Z,1.10
2022-12-31T17:52:00.875Z,1.00
2022-12-31T17:54:31.218Z,1.50
2022-12-31T17:56:59.623Z,1.40
2022-12-31T17:59:30.564Z,1.70
2022-12-31T18:02:01.280Z,1.53
2022-12-31T18:04:32.482Z,2.23
2022-12-31T18:07:00.853Z,1.80
2022-12-31T18:09:32.166Z,1.97
2022-12-31T18:12:04.523Z,2.07
2022-12-31T18:14:32.947Z,1.90
2022-12-31T18:17:01.587Z,2.00
2022-12-31T18:22:19.290Z,1.30
2022-12-31T18:24:54.296Z,1.67
2022-12-31T18:27:22.909Z,1.63
2022-12-31T18:29:53.291Z,1.30
2022-12-31T18:32:27.529Z,1.20
2022-12-31T18:34:56.241Z,1.60
2022-12-31T18:37:24.782Z,1.37
2022-12-31T18:39:54.581Z,1.20
2022-12-31T18:42:26.781Z,1.50
2022-12-31T18:44:55.816Z,1.60
2022-12-31T18:47:24.844Z,1.17
2022-12-31T18:49:53.797Z,1.50
2022-12-31T18:52:25.301Z,1.40
2022-12-31T18:54:55.660Z,1.50
2022-12-31T18:57:24.538Z,1.30
2022-12-31T18:59:53.014Z,1.10
2022-12-31T19:02:22.308Z,1.10
2022-12-31T19:04:50.989Z,1.30
2022-12-31T19:07:21.043Z,1.20
2022-12-31T19:09:58.086Z,1.20
2022-12-31T19:12:28.763Z,1.20
2022-12-31T19:14:57.178Z,1.10
2022-12-31T19:17:26.071Z,1.47
2022-12-31T19:19:54.618Z,1.47
2022-12-31T19:22:22.825Z,1.30
2022-12-31T19:24:51.275Z,1.20
2022-12-31T19:27:19.801Z,1.00
2022-12-31T19:29:49.913Z,1.30
2022-12-31T19:32:18.709Z,1.37
2022-12-31T19:34:48.113Z,1.10
2022-12-31T19:37:17.755Z,1.00
2022-12-31T19:39:46.138Z,1.30
2022-12-31T19:42:16.778Z,1.33
2022-12-31T19:44:45.458Z,0.93
2022-12-31T19:47:17.933Z,1.30
2022-12-31T19:49:46.576Z,1.30
2022-12-31T19:52:14.978Z,1.27
2022-12-31T19:54:43.439Z,1.30
2022-12-31T19:57:11.769Z,1.50
2022-12-31T19:59:40.291Z,1.20
2022-12-31T20:02:10.498Z,1.20
2022-12-31T20:04:40.972Z,1.10
2022-12-31T20:07:09.524Z,1.00
2022-12-31T20:09:38.627Z,1.30
2022-12-31T20:12:07.932Z,1.30
2022-12-31T20:14:37.661Z,1.33
2022-12-31T20:17:06.759Z,1.40
2022-12-31T20:19:35.309Z,1.30
2022-12-31T20:22:05.274Z,1.27
2022-12-31T20:24:33.852Z,1.10
2022-12-31T20:27:02.492Z,1.20
2022-12-31T20:29:31.016Z,1.10
2022-12-31T20:31:59.737Z,1.13
2022-12-31T20:34:28.763Z,1.23
2022-12-31T20:36:59.636Z,1.20
2022-12-31T20:39:29.677Z,1.40
2022-12-31T20:41:58.162Z,1.27
2022-12-31T20:44:26.580Z,1.20
2022-12-31T20:46:55.296Z,1.20
2022-12-31T20:49:52.131Z,1.20
2022-12-31T20:52:12.222Z,1.00
2022-12-31T20:54:42.299Z,1.30
2022-12-31T20:57:11.464Z,1.20
2022-12-31T20:59:39.781Z,1.20
2022-12-31T21:02:34.469Z,1.40
2022-12-31T21:04:57.246Z,1.37
2022-12-31T21:07:27.422Z,1.00
2022-12-31T21:09:59.268Z,1.60
2022-12-31T21:12:44.785Z,1.40
2022-12-31T21:15:13.998Z,1.00
2022-12-31T21:17:42.977Z,1.03
2022-12-31T21:20:12.903Z,1.57
2022-12-31T21:22:41.305Z,1.20
2022-12-31T21:25:12.003Z,1.20
2022-12-31T21:27:41.096Z,1.40
2022-12-31T21:30:19.757Z,1.00
2022-12-31T21:32:49.040Z,1.10
2022-12-31T21:38:10.812Z,1.13
2022-12-31T21:40:42.728Z,1.10
2022-12-31T21:43:12.542Z,1.30
2022-12-31T21:45:41.342Z,1.00
2022-12-31T21:48:23.316Z,1.20
2022-12-31T21:50:53.140Z,1.87
2022-12-31T21:53:27.937Z,1.80
2022-12-31T21:56:14.643Z,1.27
2022-12-31T21:58:44.445Z,1.20
2022-12-31T22:01:35.814Z,1.90
2022-12-31T22:04:05.627Z,1.20
2022-12-31T22:06:39.753Z,1.40
2022-12-31T22:09:08.805Z,0.90
2022-12-31T22:11:38.867Z,1.20
2022-12-31T22:14:07.969Z,1.67
2022-12-31T22:16:37.998Z,1.67
2022-12-31T22:19:06.856Z,1.37
2022-12-31T22:21:35.292Z,1.10
2022-12-31T22:24:03.879Z,1.60
2022-12-31T22:26:32.165Z,1.40
2022-12-31T22:29:03.020Z,1.23
2022-12-31T22:31:32.018Z,1.30
2022-12-31T22:34:02.232Z,1.10
2022-12-31T22:36:31.002Z,1.40
2022-12-31T22:38:59.697Z,1.10
2022-12-31T22:41:29.351Z,1.27
2022-12-31T22:44:04.136Z,1.20
2022-12-31T22:46:36.019Z,1.40
2022-12-31T22:49:05.914Z,1.20
2022-12-31T22:51:55.784Z,1.40
2022-12-31T22:54:23.144Z,1.13
2022-12-31T22:56:52.042Z,1.50
2022-12-31T22:59:20.610Z,2.37
2022-12-31T23:01:50.684Z,1.50
2022-12-31T23:04:20.200Z,1.63
2022-12-31T23:06:48.864Z,3.50
2022-12-31T23:09:36.067Z,4.03
2022-12-31T23:12:05.959Z,3.47
2022-12-31T23:14:52.089Z,6.67
2022-12-31T23:17:41.235Z,3.80
2022-12-31T23:20:31.180Z,4.20
2022-12-31T23:23:11.565Z,3.40
2022-12-31T23:25:44.085Z,2.73
2022-12-31T23:28:15.794Z,4.23
2022-12-31T23:30:45.293Z,4.07
2022-12-31T23:33:17.924Z,2.80
2022-12-31T23:35:49.855Z,2.57
2022-12-31T23:38:19.759Z,2.27
2022-12-31T23:40:48.514Z,1.63
2022-12-31T23:43:22.249Z,1.80
2022-12-31T23:45:51.526Z,1.70
2022-12-31T23:48:21.971Z,3.27
2022-12-31T23:50:54.291Z,2.70
2022-12-31T23:53:23.873Z,1.93
2022-12-31T23:55:53.341Z,1.60
2022-12-31T23:58:22.980Z,1.90
